sensor_id;sensor_type;location;lat;lon;timestamp;temperature;humidity
6986;DHT22;3533;51.246;6.850;2023-11-19T00:02:07;19.80;43.20
6986;DHT22;3533;51.246;6.850;2023-11-19T00:04:36;19.80;43.90
6986;DHT22;3533;51.246;6.850;2023-11-19T00:07:03;19.80;43.20
6986;DHT22;3533;51.246;6.850;2023-11-19T00:09:30;19.80;43.20
6986;DHT22;3533;51.246;6.850;2023-11-19T00:11:56;19.70;43.00
6986;DHT22;3533;51.246;6.850;2023-11-19T00:14:23;19.80;43.10
6986;DHT22;3533;51.246;6.850;2023-11-19T00:16:49;19.80;43.10
6986;DHT22;3533;51.246;6.850;2023-11-19T00:19:16;19.70;43.00
6986;DHT22;3533;51.246;6.850;2023-11-19T00:21:42;19.80;43.10
6986;DHT22;3533;51.246;6.850;2023-11-19T00:24:08;19.70;43.10
6986;DHT22;3533;51.246;6.850;2023-11-19T00:26:33;19.80;43.10
6986;DHT22;3533;51.246;6.850;2023-11-19T00:28:59;19.80;43.10
6986;DHT22;3533;51.246;6.850;2023-11-19T00:31:25;19.70;43.10
6986;DHT22;3533;51.246;6.850;2023-11-19T00:33:53;19.70;43.10
6986;DHT22;3533;51.246;6.850;2023-11-19T00:36:19;19.80;43.20
6986;DHT22;3533;51.246;6.850;2023-11-19T00:38:44;19.70;43.10
6986;DHT22;3533;51.246;6.850;2023-11-19T00:41:10;19.80;43.20
6986;DHT22;3533;51.246;6.850;2023-11-19T00:43:36;19.70;43.10
6986;DHT22;3533;51.246;6.850;2023-11-19T00:46:01;19.70;43.10
6986;DHT22;3533;51.246;6.850;2023-11-19T00:48:28;19.80;43.10
6986;DHT22;3533;51.246;6.850;2023-11-19T00:50:54;19.70;43.90
6986;DHT22;3533;51.246;6.850;2023-11-19T00:53:19;19.80;43.10
6986;DHT22;3533;51.246;6.850;2023-11-19T00:55:45;19.70;43.20
6986;DHT22;3533;51.246;6.850;2023-11-19T00:58:10;19.70;43.10
6986;DHT22;3533;51.246;6.850;2023-11-19T01:00:36;19.70;43.10
6986;DHT22;3533;51.246;6.850;2023-11-19T01:03:02;19.80;43.20
6986;DHT22;3533;51.246;6.850;2023-11-19T01:05:27;19.70;43.10
6986;DHT22;3533;51.246;6.850;2023-11-19T01:07:53;19.70;43.20
6986;DHT22;3533;51.246;6.850;2023-11-19T01:10:19;19.70;43.20
6986;DHT22;3533;51.246;6.850;2023-11-19T01:12:46;19.70;43.20
6986;DHT22;3533;51.246;6.850;2023-11-19T01:15:12;19.70;43.20
6986;DHT22;3533;51.246;6.850;2023-11-19T01:17:38;19.70;43.20
6986;DHT22;3533;51.246;6.850;2023-11-19T01:20:05;19.70;43.20
6986;DHT22;3533;51.246;6.850;2023-11-19T01:22:32;19.70;43.20
6986;DHT22;3533;51.246;6.850;2023-11-19T01:24:59;19.70;43.20
6986;DHT22;3533;51.246;6.850;2023-11-19T01:27:25;19.70;44.00
6986;DHT22;3533;51.246;6.850;2023-11-19T01:29:51;19.70;43.20
6986;DHT22;3533;51.246;6.850;2023-11-19T01:32:16;19.70;43.20
6986;DHT22;3533;51.246;6.850;2023-11-19T01:34:42;19.70;43.20
6986;DHT22;3533;51.246;6.850;2023-11-19T01:37:07;19.70;43.20
6986;DHT22;3533;51.246;6.850;2023-11-19T01:39:38;19.70;43.30
6986;DHT22;3533;51.246;6.850;2023-11-19T01:42:03;19.70;43.30
6986;DHT22;3533;51.246;6.850;2023-11-19T01:44:29;19.70;43.30
6986;DHT22;3533;51.246;6.850;2023-11-19T01:46:55;19.70;43.30
6986;DHT22;3533;51.246;6.850;2023-11-19T01:49:20;19.70;43.30
6986;DHT22;3533;51.246;6.850;2023-11-19T01:51:47;19.70;43.30
6986;DHT22;3533;51.246;6.850;2023-11-19T01:54:14;19.70;43.30
6986;DHT22;3533;51.246;6.850;2023-11-19T01:56:41;19.70;43.30
6986;DHT22;3533;51.246;6.850;2023-11-19T01:59:08;19.70;43.30
6986;DHT22;3533;51.246;6.850;2023-11-19T02:01:35;19.70;43.40
6986;DHT22;3533;51.246;6.850;2023-11-19T02:04:08;19.70;43.30
6986;DHT22;3533;51.246;6.850;2023-11-19T02:06:35;19.70;43.40
6986;DHT22;3533;51.246;6.850;2023-11-19T02:09:02;19.70;43.30
6986;DHT22;3533;51.246;6.850;2023-11-19T02:11:33;19.70;43.40
6986;DHT22;3533;51.246;6.850;2023-11-19T02:14:00;19.70;43.30
6986;DHT22;3533;51.246;6.850;2023-11-19T02:16:26;19.70;43.30
6986;DHT22;3533;51.246;6.850;2023-11-19T02:18:51;19.70;43.30
6986;DHT22;3533;51.246;6.850;2023-11-19T02:21:17;19.70;43.40
6986;DHT22;3533;51.246;6.850;2023-11-19T02:23:43;19.70;43.40
6986;DHT22;3533;51.246;6.850;2023-11-19T02:29:04;19.70;43.40
6986;DHT22;3533;51.246;6.850;2023-11-19T02:31:29;19.70;43.40
6986;DHT22;3533;51.246;6.850;2023-11-19T02:33:55;19.70;43.30
6986;DHT22;3533;51.246;6.850;2023-11-19T02:36:20;19.70;43.40
6986;DHT22;3533;51.246;6.850;2023-11-19T02:38:47;19.70;43.40
6986;DHT22;3533;51.246;6.850;2023-11-19T02:41:14;19.70;43.40
6986;DHT22;3533;51.246;6.850;2023-11-19T02:43:39;19.70;43.40
6986;DHT22;3533;51.246;6.850;2023-11-19T02:46:05;19.70;43.40
6986;DHT22;3533;51.246;6.850;2023-11-19T02:48:35;19.70;43.40
6986;DHT22;3533;51.246;6.850;2023-11-19T02:51:04;19.70;43.40
6986;DHT22;3533;51.246;6.850;2023-11-19T02:53:30;19.70;43.40
6986;DHT22;3533;51.246;6.850;2023-11-19T02:55:58;19.70;43.40
6986;DHT22;3533;51.246;6.850;2023-11-19T02:58:31;19.70;43.40
6986;DHT22;3533;51.246;6.850;2023-11-19T03:00:57;19.70;43.40
6986;DHT22;3533;51.246;6.850;2023-11-19T03:03:25;19.70;43.40
6986;DHT22;3533;51.246;6.850;2023-11-19T03:05:59;19.70;43.40
6986;DHT22;3533;51.246;6.850;2023-11-19T03:08:25;19.70;43.50
6986;DHT22;3533;51.246;6.850;2023-11-19T03:10:51;19.70;43.40
6986;DHT22;3533;51.246;6.850;2023-11-19T03:13:16;19.70;43.40
6986;DHT22;3533;51.246;6.850;2023-11-19T03:15:45;19.70;43.40
6986;DHT22;3533;51.246;6.850;2023-11-19T03:18:11;19.70;43.40
6986;DHT22;3533;51.246;6.850;2023-11-19T03:20:36;19.70;43.50
6986;DHT22;3533;51.246;6.850;2023-11-19T03:23:02;19.70;43.50
6986;DHT22;3533;51.246;6.850;2023-11-19T03:25:28;19.70;43.50
6986;DHT22;3533;51.246;6.850;2023-11-19T03:28:02;19.70;43.50
6986;DHT22;3533;51.246;6.850;2023-11-19T03:30:28;19.70;43.40
6986;DHT22;3533;51.246;6.850;2023-11-19T03:32:57;19.70;43.50
6986;DHT22;3533;51.246;6.850;2023-11-19T03:35:23;19.70;43.50
6986;DHT22;3533;51.246;6.850;2023-11-19T03:37:49;19.70;43.50
6986;DHT22;3533;51.246;6.850;2023-11-19T03:40:15;19.70;43.50
6986;DHT22;3533;51.246;6.850;2023-11-19T03:42:41;19.70;43.50
6986;DHT22;3533;51.246;6.850;2023-11-19T03:45:07;19.70;43.50
6986;DHT22;3533;51.246;6.850;2023-11-19T03:47:34;19.70;43.50
6986;DHT22;3533;51.246;6.850;2023-11-19T03:50:00;19.70;43.50
6986;DHT22;3533;51.246;6.850;2023-11-19T03:52:26;19.70;43.50
6986;DHT22;3533;51.246;6.850;2023-11-19T03:54:55;19.70;43.50
6986;DHT22;3533;51.246;6.850;2023-11-19T03:57:21;19.70;43.50
6986;DHT22;3533;51.246;6.850;2023-11-19T03:59:47;19.70;43.50
6986;DHT22;3533;51.246;6.850;2023-11-19T04:02:13;19.70;43.50
6986;DHT22;3533;51.246;6.850;2023-11-19T04:04:38;19.70;43.50
6986;DHT22;3533;51.246;6.850;2023-11-19T04:07:05;19.70;43.50
6986;DHT22;3533;51.246;6.850;2023-11-19T04:09:31;19.70;43.50
6986;DHT22;3533;51.246;6.850;2023-11-19T04:11:58;19.70;43.60
6986;DHT22;3533;51.246;6.850;2023-11-19T04:14:24;19.70;43.60
6986;DHT22;3533;51.246;6.850;2023-11-19T04:16:50;19.70;43.60
6986;DHT22;3533;51.246;6.850;2023-11-19T04:19:16;19.70;43.50
6986;DHT22;3533;51.246;6.850;2023-11-19T04:21:42;19.70;43.50
6986;DHT22;3533;51.246;6.850;2023-11-19T04:24:09;19.70;43.50
6986;DHT22;3533;51.246;6.850;2023-11-19T04:26:40;19.70;43.90
6986;DHT22;3533;51.246;6.850;2023-11-19T04:29:11;19.70;43.60
6986;DHT22;3533;51.246;6.850;2023-11-19T04:31:37;19.70;43.60
6986;DHT22;3533;51.246;6.850;2023-11-19T04:34:02;19.70;43.50
6986;DHT22;3533;51.246;6.850;2023-11-19T04:36:28;19.70;43.60
6986;DHT22;3533;51.246;6.850;2023-11-19T04:38:55;19.70;43.60
6986;DHT22;3533;51.246;6.850;2023-11-19T04:41:20;19.70;43.60
6986;DHT22;3533;51.246;6.850;2023-11-19T04:43:46;19.70;43.50
6986;DHT22;3533;51.246;6.850;2023-11-19T04:46:12;19.70;43.50
6986;DHT22;3533;51.246;6.850;2023-11-19T04:48:37;19.70;43.50
6986;DHT22;3533;51.246;6.850;2023-11-19T04:51:05;19.70;43.50
6986;DHT22;3533;51.246;6.850;2023-11-19T04:53:30;19.70;43.50
6986;DHT22;3533;51.246;6.850;2023-11-19T04:55:56;19.70;43.50
6986;DHT22;3533;51.246;6.850;2023-11-19T04:58:22;19.70;43.50
6986;DHT22;3533;51.246;6.850;2023-11-19T05:00:47;19.70;43.50
6986;DHT22;3533;51.246;6.850;2023-11-19T05:03:13;19.70;43.40
6986;DHT22;3533;51.246;6.850;2023-11-19T05:05:39;19.70;43.40
6986;DHT22;3533;51.246;6.850;2023-11-19T05:08:04;19.70;43.50
6986;DHT22;3533;51.246;6.850;2023-11-19T05:10:30;19.70;43.40
6986;DHT22;3533;51.246;6.850;2023-11-19T05:12:56;19.70;43.50
6986;DHT22;3533;51.246;6.850;2023-11-19T05:15:22;19.80;43.50
6986;DHT22;3533;51.246;6.850;2023-11-19T05:17:47;19.80;43.50
6986;DHT22;3533;51.246;6.850;2023-11-19T05:20:13;19.80;43.50
6986;DHT22;3533;51.246;6.850;2023-11-19T05:22:40;19.80;43.50
6986;DHT22;3533;51.246;6.850;2023-11-19T05:25:06;19.80;43.50
6986;DHT22;3533;51.246;6.850;2023-11-19T05:27:32;19.80;43.50
6986;DHT22;3533;51.246;6.850;2023-11-19T05:29:58;19.80;43.50
6986;DHT22;3533;51.246;6.850;2023-11-19T05:32:23;19.80;43.50
6986;DHT22;3533;51.246;6.850;2023-11-19T05:34:49;19.80;43.50
6986;DHT22;3533;51.246;6.850;2023-11-19T05:37:14;19.80;43.50
6986;DHT22;3533;51.246;6.850;2023-11-19T05:39:40;19.80;43.50
6986;DHT22;3533;51.246;6.850;2023-11-19T05:42:05;19.80;43.50
6986;DHT22;3533;51.246;6.850;2023-11-19T05:44:31;19.80;43.50
6986;DHT22;3533;51.246;6.850;2023-11-19T05:46:56;19.80;43.50
6986;DHT22;3533;51.246;6.850;2023-11-19T05:49:22;19.80;43.50
6986;DHT22;3533;51.246;6.850;2023-11-19T05:51:48;19.80;43.50
6986;DHT22;3533;51.246;6.850;2023-11-19T05:54:13;19.80;43.50
6986;DHT22;3533;51.246;6.850;2023-11-19T05:56:39;19.80;43.50
6986;DHT22;3533;51.246;6.850;2023-11-19T05:59:04;19.80;43.50
6986;DHT22;3533;51.246;6.850;2023-11-19T06:01:35;19.80;43.50
6986;DHT22;3533;51.246;6.850;2023-11-19T06:04:01;19.80;43.50
6986;DHT22;3533;51.246;6.850;2023-11-19T06:06:28;19.80;43.50
6986;DHT22;3533;51.246;6.850;2023-11-19T06:08:54;19.80;43.50
6986;DHT22;3533;51.246;6.850;2023-11-19T06:11:20;19.80;43.50
6986;DHT22;3533;51.246;6.850;2023-11-19T06:13:46;19.80;43.50
6986;DHT22;3533;51.246;6.850;2023-11-19T06:16:13;19.80;43.50
6986;DHT22;3533;51.246;6.850;2023-11-19T06:18:39;19.80;43.50
6986;DHT22;3533;51.246;6.850;2023-11-19T06:21:04;19.80;43.50
6986;DHT22;3533;51.246;6.850;2023-11-19T06:23:30;19.80;43.50
6986;DHT22;3533;51.246;6.850;2023-11-19T06:25:55;19.80;43.50
6986;DHT22;3533;51.246;6.850;2023-11-19T06:28:21;19.80;43.40
6986;DHT22;3533;51.246;6.850;2023-11-19T06:30:46;19.80;43.40
6986;DHT22;3533;51.246;6.850;2023-11-19T06:33:15;19.80;43.40
6986;DHT22;3533;51.246;6.850;2023-11-19T06:35:41;19.80;43.50
6986;DHT22;3533;51.246;6.850;2023-11-19T06:38:07;19.80;43.50
6986;DHT22;3533;51.246;6.850;2023-11-19T06:40:33;19.80;43.50
6986;DHT22;3533;51.246;6.850;2023-11-19T06:42:59;19.80;43.50
6986;DHT22;3533;51.246;6.850;2023-11-19T06:45:25;19.80;43.40
6986;DHT22;3533;51.246;6.850;2023-11-19T06:47:50;19.80;43.40
6986;DHT22;3533;51.246;6.850;2023-11-19T06:50:16;19.80;43.50
6986;DHT22;3533;51.246;6.850;2023-11-19T06:52:42;19.80;43.40
6986;DHT22;3533;51.246;6.850;2023-11-19T06:55:08;19.80;43.40
6986;DHT22;3533;51.246;6.850;2023-11-19T06:57:33;19.80;43.40
6986;DHT22;3533;51.246;6.850;2023-11-19T06:59:59;19.80;43.40
6986;DHT22;3533;51.246;6.850;2023-11-19T07:02:25;19.80;43.40
6986;DHT22;3533;51.246;6.850;2023-11-19T07:04:51;19.80;43.50
6986;DHT22;3533;51.246;6.850;2023-11-19T07:07:16;19.80;43.50
6986;DHT22;3533;51.246;6.850;2023-11-19T07:09:42;19.80;43.50
6986;DHT22;3533;51.246;6.850;2023-11-19T07:12:08;19.80;43.40
6986;DHT22;3533;51.246;6.850;2023-11-19T07:14:34;19.80;43.40
6986;DHT22;3533;51.246;6.850;2023-11-19T07:16:59;19.80;43.50
6986;DHT22;3533;51.246;6.850;2023-11-19T07:19:25;19.80;43.40
6986;DHT22;3533;51.246;6.850;2023-11-19T07:21:51;19.80;43.40
6986;DHT22;3533;51.246;6.850;2023-11-19T07:24:20;19.80;43.40
6986;DHT22;3533;51.246;6.850;2023-11-19T07:26:46;19.80;43.40
6986;DHT22;3533;51.246;6.850;2023-11-19T07:29:15;19.80;43.40
6986;DHT22;3533;51.246;6.850;2023-11-19T07:31:44;19.80;43.50
6986;DHT22;3533;51.246;6.850;2023-11-19T07:34:10;19.80;43.40
6986;DHT22;3533;51.246;6.850;2023-11-19T07:36:37;19.80;43.30
6986;DHT22;3533;51.246;6.850;2023-11-19T07:39:03;19.90;43.50
6986;DHT22;3533;51.246;6.850;2023-11-19T07:41:30;19.80;43.40
6986;DHT22;3533;51.246;6.850;2023-11-19T07:43:56;19.80;43.50
6986;DHT22;3533;51.246;6.850;2023-11-19T07:46:21;19.90;43.60
6986;DHT22;3533;51.246;6.850;2023-11-19T07:48:47;19.80;43.40
6986;DHT22;3533;51.246;6.850;2023-11-19T07:51:13;19.90;43.50
6986;DHT22;3533;51.246;6.850;2023-11-19T07:53:40;19.80;43.50
6986;DHT22;3533;51.246;6.850;2023-11-19T07:56:07;19.80;43.50
6986;DHT22;3533;51.246;6.850;2023-11-19T07:58:32;19.80;43.50
6986;DHT22;3533;51.246;6.850;2023-11-19T08:00:58;19.80;43.50
6986;DHT22;3533;51.246;6.850;2023-11-19T08:03:23;19.90;43.50
6986;DHT22;3533;51.246;6.850;2023-11-19T08:05:49;19.80;43.50
6986;DHT22;3533;51.246;6.850;2023-11-19T08:08:15;19.80;43.50
6986;DHT22;3533;51.246;6.850;2023-11-19T08:10:41;19.90;43.60
6986;DHT22;3533;51.246;6.850;2023-11-19T08:13:06;19.80;43.50
6986;DHT22;3533;51.246;6.850;2023-11-19T08:15:33;19.90;43.50
6986;DHT22;3533;51.246;6.850;2023-11-19T08:18:23;19.80;43.50
6986;DHT22;3533;51.246;6.850;2023-11-19T08:21:14;19.80;43.50
6986;DHT22;3533;51.246;6.850;2023-11-19T08:24:05;19.80;43.60
6986;DHT22;3533;51.246;6.850;2023-11-19T08:26:56;19.80;43.50
6986;DHT22;3533;51.246;6.850;2023-11-19T08:29:46;19.80;43.60
6986;DHT22;3533;51.246;6.850;2023-11-19T08:32:37;19.80;43.60
6986;DHT22;3533;51.246;6.850;2023-11-19T08:35:29;19.80;43.60
6986;DHT22;3533;51.246;6.850;2023-11-19T08:38:19;19.80;43.60
6986;DHT22;3533;51.246;6.850;2023-11-19T08:41:10;19.80;43.60
6986;DHT22;3533;51.246;6.850;2023-11-19T08:44:01;19.80;43.60
6986;DHT22;3533;51.246;6.850;2023-11-19T08:54:13;19.80;43.70
6986;DHT22;3533;51.246;6.850;2023-11-19T08:56:39;19.80;43.80
6986;DHT22;3533;51.246;6.850;2023-11-19T08:59:05;19.80;43.80
6986;DHT22;3533;51.246;6.850;2023-11-19T09:01:31;19.80;44.50
6986;DHT22;3533;51.246;6.850;2023-11-19T09:03:56;19.80;43.80
6986;DHT22;3533;51.246;6.850;2023-11-19T09:06:23;19.80;43.70
6986;DHT22;3533;51.246;6.850;2023-11-19T09:08:49;19.80;43.70
6986;DHT22;3533;51.246;6.850;2023-11-19T09:11:14;19.80;43.70
6986;DHT22;3533;51.246;6.850;2023-11-19T09:13:40;19.80;43.80
6986;DHT22;3533;51.246;6.850;2023-11-19T09:16:06;19.90;43.80
6986;DHT22;3533;51.246;6.850;2023-11-19T09:18:31;19.90;43.80
6986;DHT22;3533;51.246;6.850;2023-11-19T09:20:58;19.90;43.80
6986;DHT22;3533;51.246;6.850;2023-11-19T09:23:23;19.80;43.70
6986;DHT22;3533;51.246;6.850;2023-11-19T09:25:50;19.90;43.80
6986;DHT22;3533;51.246;6.850;2023-11-19T09:28:16;19.80;43.70
6986;DHT22;3533;51.246;6.850;2023-11-19T09:30:43;19.80;43.70
6986;DHT22;3533;51.246;6.850;2023-11-19T09:33:08;19.90;43.90
6986;DHT22;3533;51.246;6.850;2023-11-19T09:35:35;19.90;43.90
6986;DHT22;3533;51.246;6.850;2023-11-19T09:38:00;19.80;43.70
6986;DHT22;3533;51.246;6.850;2023-11-19T09:40:26;19.90;43.80
6986;DHT22;3533;51.246;6.850;2023-11-19T09:42:54;19.80;43.80
6986;DHT22;3533;51.246;6.850;2023-11-19T09:45:21;19.90;43.90
6986;DHT22;3533;51.246;6.850;2023-11-19T09:47:46;19.90;43.80
6986;DHT22;3533;51.246;6.850;2023-11-19T09:50:19;19.90;43.80
6986;DHT22;3533;51.246;6.850;2023-11-19T09:52:46;19.90;43.80
6986;DHT22;3533;51.246;6.850;2023-11-19T09:55:11;19.90;43.80
6986;DHT22;3533;51.246;6.850;2023-11-19T09:57:39;19.90;43.90
6986;DHT22;3533;51.246;6.850;2023-11-19T10:00:06;19.80;43.90
6986;DHT22;3533;51.246;6.850;2023-11-19T10:04:15;19.90;43.70
6986;DHT22;3533;51.246;6.850;2023-11-19T10:06:42;19.90;44.20
6986;DHT22;3533;51.246;6.850;2023-11-19T10:09:08;20.00;44.30
6986;DHT22;3533;51.246;6.850;2023-11-19T10:11:33;20.00;44.20
6986;DHT22;3533;51.246;6.850;2023-11-19T10:13:59;20.00;44.20
6986;DHT22;3533;51.246;6.850;2023-11-19T10:16:29;20.00;44.20
6986;DHT22;3533;51.246;6.850;2023-11-19T10:18:56;20.00;44.30
6986;DHT22;3533;51.246;6.850;2023-11-19T10:21:22;20.00;44.20
6986;DHT22;3533;51.246;6.850;2023-11-19T10:23:52;20.10;44.20
6986;DHT22;3533;51.246;6.850;2023-11-19T10:26:19;20.10;45.00
6986;DHT22;3533;51.246;6.850;2023-11-19T10:28:46;20.10;44.10
6986;DHT22;3533;51.246;6.850;2023-11-19T10:31:16;20.10;44.20
6986;DHT22;3533;51.246;6.850;2023-11-19T10:33:42;20.10;44.20
6986;DHT22;3533;51.246;6.850;2023-11-19T10:36:10;20.20;44.20
6986;DHT22;3533;51.246;6.850;2023-11-19T10:38:38;20.20;44.20
6986;DHT22;3533;51.246;6.850;2023-11-19T10:41:04;20.20;44.10
6986;DHT22;3533;51.246;6.850;2023-11-19T10:43:31;20.30;44.20
6986;DHT22;3533;51.246;6.850;2023-11-19T10:46:16;20.30;44.20
6986;DHT22;3533;51.246;6.850;2023-11-19T10:48:46;20.30;44.10
6986;DHT22;3533;51.246;6.850;2023-11-19T10:51:13;20.30;44.20
6986;DHT22;3533;51.246;6.850;2023-11-19T10:53:46;20.30;44.20
6986;DHT22;3533;51.246;6.850;2023-11-19T10:56:13;20.30;44.30
6986;DHT22;3533;51.246;6.850;2023-11-19T10:58:44;20.30;44.20
6986;DHT22;3533;51.246;6.850;2023-11-19T11:01:19;20.30;44.20
6986;DHT22;3533;51.246;6.850;2023-11-19T11:03:46;20.30;44.20
6986;DHT22;3533;51.246;6.850;2023-11-19T11:06:13;20.30;44.30
6986;DHT22;3533;51.246;6.850;2023-11-19T11:08:39;20.30;44.30
6986;DHT22;3533;51.246;6.850;2023-11-19T11:11:05;20.30;44.30
6986;DHT22;3533;51.246;6.850;2023-11-19T11:13:33;20.30;44.40
6986;DHT22;3533;51.246;6.850;2023-11-19T11:15:59;20.30;44.40
6986;DHT22;3533;51.246;6.850;2023-11-19T11:18:26;20.30;44.40
6986;DHT22;3533;51.246;6.850;2023-11-19T11:21:02;20.30;44.40
6986;DHT22;3533;51.246;6.850;2023-11-19T11:24:10;20.30;44.40
6986;DHT22;3533;51.246;6.850;2023-11-19T11:33:17;20.30;44.50
6986;DHT22;3533;51.246;6.850;2023-11-19T11:35:55;20.30;44.50
6986;DHT22;3533;51.246;6.850;2023-11-19T11:38:27;20.30;44.50
6986;DHT22;3533;51.246;6.850;2023-11-19T11:41:15;20.30;44.50
6986;DHT22;3533;51.246;6.850;2023-11-19T11:49:04;20.30;44.50
6986;DHT22;3533;51.246;6.850;2023-11-19T11:54:11;20.30;44.60
6986;DHT22;3533;51.246;6.850;2023-11-19T11:59:47;20.30;44.50
6986;DHT22;3533;51.246;6.850;2023-11-19T12:02:21;20.30;44.50
6986;DHT22;3533;51.246;6.850;2023-11-19T12:04:48;20.30;44.60
6986;DHT22;3533;51.246;6.850;2023-11-19T12:07:23;20.30;44.60
6986;DHT22;3533;51.246;6.850;2023-11-19T12:09:53;20.30;44.60
6986;DHT22;3533;51.246;6.850;2023-11-19T12:12:27;20.30;44.60
6986;DHT22;3533;51.246;6.850;2023-11-19T12:15:03;20.30;44.60
6986;DHT22;3533;51.246;6.850;2023-11-19T12:20:06;20.30;44.60
6986;DHT22;3533;51.246;6.850;2023-11-19T12:22:40;20.30;44.60
6986;DHT22;3533;51.246;6.850;2023-11-19T12:25:08;20.30;44.60
6986;DHT22;3533;51.246;6.850;2023-11-19T12:27:41;20.30;44.60
6986;DHT22;3533;51.246;6.850;2023-11-19T12:30:08;20.30;44.70
6986;DHT22;3533;51.246;6.850;2023-11-19T12:32:38;20.30;44.60
6986;DHT22;3533;51.246;6.850;2023-11-19T12:35:04;20.30;44.70
6986;DHT22;3533;51.246;6.850;2023-11-19T12:37:29;20.30;44.70
6986;DHT22;3533;51.246;6.850;2023-11-19T12:39:57;20.30;44.70
6986;DHT22;3533;51.246;6.850;2023-11-19T12:42:35;20.30;44.80
6986;DHT22;3533;51.246;6.850;2023-11-19T12:45:02;20.30;44.80
6986;DHT22;3533;51.246;6.850;2023-11-19T12:47:27;20.30;44.80
6986;DHT22;3533;51.246;6.850;2023-11-19T12:49:58;20.30;45.00
6986;DHT22;3533;51.246;6.850;2023-11-19T12:52:24;20.30;44.80
6986;DHT22;3533;51.246;6.850;2023-11-19T12:54:50;20.30;44.90
6986;DHT22;3533;51.246;6.850;2023-11-19T12:57:16;20.30;44.90
6986;DHT22;3533;51.246;6.850;2023-11-19T12:59:54;20.30;45.00
6986;DHT22;3533;51.246;6.850;2023-11-19T13:02:21;20.30;45.00
6986;DHT22;3533;51.246;6.850;2023-11-19T13:04:47;20.30;45.00
6986;DHT22;3533;51.246;6.850;2023-11-19T13:07:12;20.30;44.90
6986;DHT22;3533;51.246;6.850;2023-11-19T13:09:38;20.30;45.00
6986;DHT22;3533;51.246;6.850;2023-11-19T13:12:15;20.30;45.00
6986;DHT22;3533;51.246;6.850;2023-11-19T13:14:42;20.30;44.90
6986;DHT22;3533;51.246;6.850;2023-11-19T13:17:13;20.30;45.00
6986;DHT22;3533;51.246;6.850;2023-11-19T13:19:39;20.30;45.00
6986;DHT22;3533;51.246;6.850;2023-11-19T13:22:04;20.30;45.00
6986;DHT22;3533;51.246;6.850;2023-11-19T13:24:30;20.30;45.00
6986;DHT22;3533;51.246;6.850;2023-11-19T13:26:55;20.30;45.00
6986;DHT22;3533;51.246;6.850;2023-11-19T13:29:21;20.30;45.00
6986;DHT22;3533;51.246;6.850;2023-11-19T13:31:46;20.30;45.00
6986;DHT22;3533;51.246;6.850;2023-11-19T13:34:12;20.30;45.00
6986;DHT22;3533;51.246;6.850;2023-11-19T13:36:38;20.30;45.00
6986;DHT22;3533;51.246;6.850;2023-11-19T13:39:03;20.30;45.00
6986;DHT22;3533;51.246;6.850;2023-11-19T13:41:29;20.30;45.00
6986;DHT22;3533;51.246;6.850;2023-11-19T13:43:55;20.30;44.80
6986;DHT22;3533;51.246;6.850;2023-11-19T13:46:20;20.30;44.80
6986;DHT22;3533;51.246;6.850;2023-11-19T13:48:46;20.30;44.90
6986;DHT22;3533;51.246;6.850;2023-11-19T13:51:12;20.30;44.90
6986;DHT22;3533;51.246;6.850;2023-11-19T13:53:37;20.30;45.00
6986;DHT22;3533;51.246;6.850;2023-11-19T13:56:03;20.30;44.90
6986;DHT22;3533;51.246;6.850;2023-11-19T13:58:28;20.30;45.00
6986;DHT22;3533;51.246;6.850;2023-11-19T14:00:54;20.30;45.00
6986;DHT22;3533;51.246;6.850;2023-11-19T14:03:19;20.30;45.00
6986;DHT22;3533;51.246;6.850;2023-11-19T14:05:45;20.30;45.00
6986;DHT22;3533;51.246;6.850;2023-11-19T14:08:11;20.30;45.00
6986;DHT22;3533;51.246;6.850;2023-11-19T14:10:38;20.30;45.00
6986;DHT22;3533;51.246;6.850;2023-11-19T14:13:07;20.30;45.00
6986;DHT22;3533;51.246;6.850;2023-11-19T14:15:33;20.30;45.00
6986;DHT22;3533;51.246;6.850;2023-11-19T14:17:58;20.30;45.00
6986;DHT22;3533;51.246;6.850;2023-11-19T14:20:24;20.30;45.00
6986;DHT22;3533;51.246;6.850;2023-11-19T14:22:51;20.30;45.00
6986;DHT22;3533;51.246;6.850;2023-11-19T14:25:17;20.30;45.00
6986;DHT22;3533;51.246;6.850;2023-11-19T14:27:44;20.30;45.00
6986;DHT22;3533;51.246;6.850;2023-11-19T14:30:12;20.30;45.00
6986;DHT22;3533;51.246;6.850;2023-11-19T14:32:40;20.30;45.00
6986;DHT22;3533;51.246;6.850;2023-11-19T14:35:06;20.30;45.00
6986;DHT22;3533;51.246;6.850;2023-11-19T14:37:32;20.30;45.00
6986;DHT22;3533;51.246;6.850;2023-11-19T14:39:58;20.30;45.00
6986;DHT22;3533;51.246;6.850;2023-11-19T14:42:24;20.30;45.00
6986;DHT22;3533;51.246;6.850;2023-11-19T14:44:53;20.30;45.00
6986;DHT22;3533;51.246;6.850;2023-11-19T14:47:22;20.30;45.00
6986;DHT22;3533;51.246;6.850;2023-11-19T14:49:48;20.30;45.00
6986;DHT22;3533;51.246;6.850;2023-11-19T14:52:13;20.30;45.00
6986;DHT22;3533;51.246;6.850;2023-11-19T14:54:39;20.30;45.00
6986;DHT22;3533;51.246;6.850;2023-11-19T14:57:06;20.30;45.00
6986;DHT22;3533;51.246;6.850;2023-11-19T14:59:36;20.30;45.00
6986;DHT22;3533;51.246;6.850;2023-11-19T15:02:03;20.30;45.00
6986;DHT22;3533;51.246;6.850;2023-11-19T15:04:29;20.30;45.00
6986;DHT22;3533;51.246;6.850;2023-11-19T15:06:57;20.30;45.00
6986;DHT22;3533;51.246;6.850;2023-11-19T15:09:23;20.30;45.00
6986;DHT22;3533;51.246;6.850;2023-11-19T15:11:49;20.30;45.70
6986;DHT22;3533;51.246;6.850;2023-11-19T15:14:15;20.30;44.90
6986;DHT22;3533;51.246;6.850;2023-11-19T15:16:44;20.30;45.00
6986;DHT22;3533;51.246;6.850;2023-11-19T15:19:10;20.30;45.00
6986;DHT22;3533;51.246;6.850;2023-11-19T15:21:37;20.30;45.00
6986;DHT22;3533;51.246;6.850;2023-11-19T15:24:03;20.30;44.90
6986;DHT22;3533;51.246;6.850;2023-11-19T15:26:33;20.30;45.00
6986;DHT22;3533;51.246;6.850;2023-11-19T15:28:58;20.30;45.00
6986;DHT22;3533;51.246;6.850;2023-11-19T15:31:24;20.30;45.00
6986;DHT22;3533;51.246;6.850;2023-11-19T15:33:49;20.30;45.00
6986;DHT22;3533;51.246;6.850;2023-11-19T15:36:16;20.30;45.00
6986;DHT22;3533;51.246;6.850;2023-11-19T15:38:43;20.30;45.00
6986;DHT22;3533;51.246;6.850;2023-11-19T15:41:08;20.30;45.10
6986;DHT22;3533;51.246;6.850;2023-11-19T15:43:34;20.30;45.00
6986;DHT22;3533;51.246;6.850;2023-11-19T15:46:00;20.30;45.00
6986;DHT22;3533;51.246;6.850;2023-11-19T15:48:25;20.30;45.00
6986;DHT22;3533;51.246;6.850;2023-11-19T15:50:52;20.30;45.00
6986;DHT22;3533;51.246;6.850;2023-11-19T15:53:18;20.30;44.90
6986;DHT22;3533;51.246;6.850;2023-11-19T15:55:44;20.30;45.00
6986;DHT22;3533;51.246;6.850;2023-11-19T15:58:10;20.30;45.00
6986;DHT22;3533;51.246;6.850;2023-11-19T16:00:36;20.30;45.00
6986;DHT22;3533;51.246;6.850;2023-11-19T16:03:02;20.30;45.00
6986;DHT22;3533;51.246;6.850;2023-11-19T16:05:28;20.30;45.00
6986;DHT22;3533;51.246;6.850;2023-11-19T16:07:53;20.30;45.00
6986;DHT22;3533;51.246;6.850;2023-11-19T16:10:19;20.30;45.00
6986;DHT22;3533;51.246;6.850;2023-11-19T16:12:48;20.30;45.00
6986;DHT22;3533;51.246;6.850;2023-11-19T16:15:13;20.40;45.00
6986;DHT22;3533;51.246;6.850;2023-11-19T16:17:41;20.30;45.00
6986;DHT22;3533;51.246;6.850;2023-11-19T16:20:07;20.30;45.00
6986;DHT22;3533;51.246;6.850;2023-11-19T16:22:37;20.40;45.00
6986;DHT22;3533;51.246;6.850;2023-11-19T16:25:03;20.30;45.00
6986;DHT22;3533;51.246;6.850;2023-11-19T16:27:29;20.30;45.00
6986;DHT22;3533;51.246;6.850;2023-11-19T16:29:54;20.40;45.10
6986;DHT22;3533;51.246;6.850;2023-11-19T16:32:21;20.30;45.00
6986;DHT22;3533;51.246;6.850;2023-11-19T16:34:47;20.30;45.00
6986;DHT22;3533;51.246;6.850;2023-11-19T16:37:15;20.40;45.00